createdAt,value
2022-10-05T00:01:56.805Z,73.37
2022-10-05T00:04:07.391Z,73.38
2022-10-05T00:06:14.170Z,73.79
2022-10-05T00:08:19.724Z,73.86
2022-10-05T00:10:22.803Z,74.53
2022-10-05T00:12:28.210Z,74.44
2022-10-05T00:14:33.478Z,74.36
2022-10-05T00:16:36.081Z,74.14
2022-10-05T00:18:39.440Z,73.89
2022-10-05T00:20:42.555Z,74.09
2022-10-05T00:22:46.997Z,73.53
2022-10-05T00:24:52.723Z,73.49
2022-10-05T00:26:58.092Z,73.20
2022-10-05T00:29:02.649Z,72.79
2022-10-05T00:31:15.860Z,72.79
2022-10-05T00:33:18.495Z,73.53
2022-10-05T00:35:21.525Z,73.32
2022-10-05T00:37:24.104Z,73.28
2022-10-05T00:39:29.888Z,73.57
2022-10-05T00:41:45.969Z,73.96
2022-10-05T00:44:38.364Z,73.64
2022-10-05T00:46:52.188Z,72.55
2022-10-05T00:49:04.898Z,72.19
2022-10-05T00:51:17.750Z,72.92
2022-10-05T00:53:34.794Z,72.81
2022-10-05T00:55:52.620Z,72.40
2022-10-05T00:58:09.211Z,72.33
2022-10-05T01:00:14.260Z,72.44
2022-10-05T01:02:25.063Z,72.46
2022-10-05T01:04:35.514Z,72.19
2022-10-05T01:06:48.959Z,71.82
2022-10-05T01:08:59.269Z,71.97
2022-10-05T01:11:11.733Z,71.55
2022-10-05T01:13:25.232Z,72.15
2022-10-05T01:15:34.489Z,71.97
2022-10-05T01:17:43.037Z,71.54
2022-10-05T01:20:02.643Z,72.31
2022-10-05T01:22:14.547Z,72.31
2022-10-05T01:24:36.365Z,71.85
2022-10-05T01:27:13.107Z,72.00
2022-10-05T01:29:22.650Z,71.44
2022-10-05T01:31:29.486Z,71.74
2022-10-05T01:33:38.807Z,72.02
2022-10-05T01:35:50.897Z,71.74
2022-10-05T01:38:05.609Z,72.21
2022-10-05T01:40:15.469Z,71.83
2022-10-05T01:42:27.222Z,71.59
2022-10-05T01:44:37.381Z,71.57
2022-10-05T01:46:45.524Z,71.92
2022-10-05T01:49:00.199Z,72.14
2022-10-05T01:51:12.373Z,71.39
2022-10-05T01:53:25.799Z,72.80
2022-10-05T01:55:35.098Z,72.31
2022-10-05T01:57:47.919Z,72.75
2022-10-05T02:00:04.690Z,72.66
2022-10-05T02:02:12.909Z,72.68
2022-10-05T02:04:42.722Z,72.83
2022-10-05T02:06:44.827Z,72.41
2022-10-05T02:08:53.911Z,72.34
2022-10-05T02:11:00.648Z,72.18
2022-10-05T02:13:08.130Z,71.75
2022-10-05T02:15:15.740Z,72.32
2022-10-05T02:17:23.328Z,72.45
2022-10-05T02:19:34.153Z,71.97
2022-10-05T02:21:37.490Z,72.05
2022-10-05T02:23:43.968Z,71.78
2022-10-05T02:25:48.577Z,71.26
2022-10-05T02:27:54.672Z,71.46
2022-10-05T02:30:02.509Z,71.47
2022-10-05T02:32:12.309Z,71.17
2022-10-05T02:34:23.146Z,71.02
2022-10-05T02:36:34.488Z,71.16
2022-10-05T02:38:47.808Z,70.89
2022-10-05T02:41:02.570Z,70.67
2022-10-05T02:43:14.731Z,70.60
2022-10-05T02:45:26.627Z,70.84
2022-10-05T02:47:34.395Z,71.28
2022-10-05T02:49:43.514Z,71.43
2022-10-05T02:51:52.282Z,71.66
2022-10-05T02:54:04.837Z,71.11
2022-10-05T02:56:17.515Z,70.87
2022-10-05T02:58:24.324Z,70.81
2022-10-05T03:00:31.446Z,71.44
2022-10-05T03:02:42.476Z,71.27
2022-10-05T03:04:57.357Z,71.16
2022-10-05T03:07:11.604Z,71.44
2022-10-05T03:09:17.569Z,71.39
2022-10-05T03:11:31.457Z,71.03
2022-10-05T03:13:44.353Z,71.54
2022-10-05T03:15:59.852Z,71.47
2022-10-05T03:18:15.265Z,71.94
2022-10-05T03:20:31.181Z,72.28
2022-10-05T03:22:45.306Z,71.69
2022-10-05T03:25:15.149Z,71.83
2022-10-05T03:27:33.231Z,71.45
2022-10-05T03:29:41.661Z,71.29
2022-10-05T03:31:50.354Z,71.46
2022-10-05T03:34:00.724Z,71.07
2022-10-05T03:36:12.919Z,70.94
2022-10-05T03:38:20.790Z,70.72
2022-10-05T03:40:30.755Z,71.07
2022-10-05T03:42:44.293Z,71.26
2022-10-05T03:44:53.328Z,71.30
2022-10-05T03:47:06.723Z,70.69
2022-10-05T03:49:18.129Z,71.07
2022-10-05T03:51:25.529Z,70.68
2022-10-05T03:53:32.133Z,70.78
2022-10-05T03:55:41.988Z,71.65
2022-10-05T03:57:46.743Z,70.99
2022-10-05T03:59:58.457Z,71.83
2022-10-05T04:02:03.565Z,73.00
2022-10-05T04:04:12.430Z,73.01
2022-10-05T04:06:21.987Z,73.10
2022-10-05T04:08:32.579Z,73.40
2022-10-05T04:10:42.440Z,72.49
2022-10-05T04:12:50.016Z,72.81
2022-10-05T04:14:55.723Z,73.43
2022-10-05T04:17:02.554Z,74.25
2022-10-05T04:19:14.643Z,73.77
2022-10-05T04:21:24.946Z,73.36
2022-10-05T04:23:39.627Z,73.34
2022-10-05T04:25:47.280Z,73.31
2022-10-05T04:27:56.174Z,73.37
2022-10-05T04:30:08.120Z,74.06
2022-10-05T04:32:26.930Z,74.58
2022-10-05T04:34:48.136Z,74.65
2022-10-05T04:36:59.254Z,74.74
2022-10-05T04:39:13.040Z,74.74
2022-10-05T04:41:29.256Z,74.78
2022-10-05T04:43:43.397Z,73.90
2022-10-05T04:45:59.813Z,73.36
2022-10-05T04:48:35.122Z,73.36
2022-10-05T04:50:50.471Z,73.08
2022-10-05T04:53:03.215Z,73.31
2022-10-05T04:55:13.428Z,73.85
2022-10-05T04:57:24.163Z,73.16
2022-10-05T04:59:46.816Z,72.21
2022-10-05T05:02:06.630Z,73.20
2022-10-05T05:04:33.509Z,72.91
2022-10-05T05:06:41.029Z,72.13
2022-10-05T05:09:05.793Z,72.67
2022-10-05T05:11:24.620Z,73.44
2022-10-05T05:13:51.220Z,72.41
2022-10-05T05:16:02.179Z,72.49
2022-10-05T05:18:34.190Z,72.11
2022-10-05T05:20:52.473Z,72.00
2022-10-05T05:23:03.495Z,71.37
2022-10-05T05:25:23.819Z,72.08
2022-10-05T05:27:41.332Z,71.65
2022-10-05T05:29:57.958Z,71.29
2022-10-05T05:32:10.414Z,72.03
2022-10-05T05:34:30.312Z,72.02
2022-10-05T05:36:49.235Z,71.33
2022-10-05T05:39:05.951Z,71.79
2022-10-05T05:41:13.051Z,71.56
2022-10-05T05:43:25.372Z,71.55
2022-10-05T05:45:38.563Z,71.29
2022-10-05T05:47:47.016Z,71.39
2022-10-05T05:52:40.033Z,71.54
2022-10-05T05:54:47.740Z,71.35
2022-10-05T05:56:58.130Z,71.67
2022-10-05T05:59:07.849Z,71.77
2022-10-05T06:01:32.314Z,71.65
2022-10-05T06:03:40.533Z,71.21
2022-10-05T06:05:49.528Z,72.04
2022-10-05T06:07:54.882Z,72.36
2022-10-05T06:10:02.464Z,72.66
2022-10-05T06:12:11.993Z,72.45
2022-10-05T06:14:20.165Z,72.33
2022-10-05T06:16:27.318Z,72.32
2022-10-05T06:18:33.101Z,72.67
2022-10-05T06:20:41.041Z,72.44
2022-10-05T06:22:46.605Z,72.98
2022-10-05T06:24:58.857Z,72.77
2022-10-05T06:27:27.813Z,72.95
2022-10-05T06:29:46.010Z,74.07
2022-10-05T06:32:05.349Z,74.49
2022-10-05T06:34:20.348Z,74.45
2022-10-05T06:36:36.389Z,75.38
2022-10-05T06:38:54.407Z,75.24
2022-10-05T06:41:12.864Z,74.80
2022-10-05T06:43:35.940Z,74.73
2022-10-05T06:45:55.396Z,75.41
2022-10-05T06:48:08.433Z,75.33
2022-10-05T06:50:20.087Z,76.04
2022-10-05T06:52:30.240Z,76.13
2022-10-05T06:54:44.316Z,76.08
2022-10-05T06:56:54.642Z,77.05
2022-10-05T06:59:06.539Z,76.89
2022-10-05T07:01:15.261Z,77.81
2022-10-05T07:03:28.930Z,78.01
2022-10-05T07:05:57.809Z,78.47
2022-10-05T07:08:03.953Z,79.13
2022-10-05T07:10:18.387Z,79.11
2022-10-05T07:12:37.909Z,78.88
2022-10-05T07:14:54.897Z,79.20
2022-10-05T07:17:18.148Z,79.20
2022-10-05T07:19:33.611Z,78.66
2022-10-05T07:21:45.988Z,78.97
2022-10-05T07:23:57.523Z,79.29
2022-10-05T07:26:06.673Z,79.07
2022-10-05T07:28:18.694Z,78.93
2022-10-05T07:30:21.728Z,79.35
2022-10-05T07:32:34.858Z,79.99
2022-10-05T07:34:50.316Z,80.13
2022-10-05T07:37:18.081Z,80.17
2022-10-05T07:39:42.049Z,80.36
2022-10-05T07:41:57.913Z,80.52
2022-10-05T07:44:12.894Z,79.73
2022-10-05T07:46:23.242Z,80.13
2022-10-05T07:48:33.388Z,79.76
2022-10-05T07:50:41.595Z,79.17
2022-10-05T07:52:50.753Z,79.05
2022-10-05T07:55:03.832Z,79.18
2022-10-05T07:57:16.707Z,79.31
2022-10-05T07:59:30.870Z,79.65
2022-10-05T08:01:36.568Z,79.61
2022-10-05T08:03:49.348Z,79.41
2022-10-05T08:05:51.942Z,79.32
2022-10-05T08:08:00.293Z,79.36
2022-10-05T08:10:17.739Z,78.92
2022-10-05T08:12:25.946Z,78.85
2022-10-05T08:14:35.837Z,78.94
2022-10-05T08:16:39.568Z,78.82
2022-10-05T08:18:54.703Z,79.21
2022-10-05T08:20:59.525Z,79.13
2022-10-05T08:23:14.169Z,78.91
2022-10-05T08:25:25.755Z,80.08
2022-10-05T08:27:40.098Z,80.72
2022-10-05T08:29:50.702Z,80.95
2022-10-05T08:31:57.212Z,80.92
2022-10-05T08:34:11.202Z,80.98
2022-10-05T08:36:16.853Z,81.29
2022-10-05T08:38:22.508Z,81.04
2022-10-05T08:40:45.370Z,81.14
2022-10-05T08:43:18.306Z,81.29
2022-10-05T08:45:45.580Z,80.99
2022-10-05T08:48:32.068Z,81.19
2022-10-05T08:50:57.910Z,81.49
2022-10-05T08:53:36.795Z,81.54
2022-10-05T08:55:48.036Z,81.02
2022-10-05T08:58:31.984Z,80.73
2022-10-05T09:00:49.176Z,81.04
2022-10-05T09:03:08.755Z,81.29
2022-10-05T09:05:29.101Z,81.46
2022-10-05T09:08:11.563Z,82.01
2022-10-05T09:10:54.962Z,82.49
2022-10-05T09:13:18.393Z,83.10
2022-10-05T09:15:38.044Z,82.88
2022-10-05T09:18:12.049Z,83.26
2022-10-05T09:20:32.221Z,82.95
2022-10-05T09:22:59.156Z,83.03
2022-10-05T09:25:15.592Z,83.60
2022-10-05T09:27:19.497Z,84.01
2022-10-05T09:29:59.522Z,83.97
2022-10-05T09:32:25.041Z,84.70
2022-10-05T09:35:00.649Z,84.70
2022-10-05T09:37:39.896Z,84.70
2022-10-05T09:40:12.398Z,84.68
2022-10-05T09:42:46.141Z,84.61
2022-10-05T09:45:21.182Z,84.03
2022-10-05T09:47:50.756Z,84.09
2022-10-05T09:50:07.651Z,84.43
2022-10-05T09:52:28.340Z,84.48
2022-10-05T09:55:01.219Z,84.38
2022-10-05T09:57:48.171Z,84.24
2022-10-05T10:00:21.590Z,84.29
2022-10-05T10:02:43.361Z,83.92
2022-10-05T10:05:07.470Z,83.62
2022-10-05T10:07:42.146Z,83.69
2022-10-05T10:09:56.755Z,83.74
2022-10-05T10:12:20.155Z,84.33
2022-10-05T10:15:10.981Z,84.65
2022-10-05T10:17:30.008Z,84.10
2022-10-05T10:19:58.927Z,84.06
2022-10-05T10:22:20.920Z,84.38
2022-10-05T10:24:33.072Z,84.84
2022-10-05T10:27:16.348Z,84.64
2022-10-05T10:29:50.971Z,84.67
2022-10-05T10:32:09.626Z,84.88
2022-10-05T10:34:57.587Z,85.08
2022-10-05T10:37:32.689Z,85.33
2022-10-05T10:39:54.003Z,85.40
2022-10-05T10:42:25.293Z,86.23
2022-10-05T10:45:04.562Z,86.07
2022-10-05T10:47:39.226Z,86.13
2022-10-05T10:50:05.974Z,85.42
2022-10-05T10:52:22.502Z,84.69
2022-10-05T10:55:04.808Z,85.32
2022-10-05T10:57:10.222Z,85.89
2022-10-05T10:59:45.845Z,85.40
2022-10-05T11:02:02.467Z,85.10
2022-10-05T11:04:36.033Z,85.01
2022-10-05T11:07:16.590Z,84.98
2022-10-05T11:09:35.919Z,85.66
2022-10-05T11:12:21.922Z,85.65
2022-10-05T11:14:52.868Z,85.08
2022-10-05T11:17:15.541Z,84.65
2022-10-05T11:19:59.519Z,84.54
2022-10-05T11:22:20.118Z,84.37
2022-10-05T11:24:43.334Z,84.43
2022-10-05T11:27:11.172Z,83.62
2022-10-05T11:29:46.112Z,83.29
2022-10-05T11:32:08.713Z,84.60
2022-10-05T11:34:46.301Z,83.26
2022-10-05T11:37:14.641Z,82.47
2022-10-05T11:39:37.062Z,82.37
2022-10-05T11:42:10.981Z,81.97
2022-10-05T11:44:42.927Z,81.20
2022-10-05T11:46:56.423Z,80.66
2022-10-05T11:49:23.317Z,80.28
2022-10-05T11:51:39.364Z,79.47
2022-10-05T11:53:46.261Z,79.31
2022-10-05T11:56:06.359Z,79.83
2022-10-05T11:58:17.194Z,80.33
2022-10-05T12:00:22.194Z,79.98
2022-10-05T12:02:58.287Z,79.18
2022-10-05T12:05:12.224Z,76.04
2022-10-05T12:07:25.495Z,73.03
2022-10-05T12:10:06.923Z,71.69
2022-10-05T12:12:17.920Z,70.80
2022-10-05T12:14:28.409Z,68.98
2022-10-05T12:16:37.839Z,68.73
2022-10-05T12:18:50.976Z,67.67
2022-10-05T12:20:59.727Z,67.33
2022-10-05T12:23:12.482Z,67.07
2022-10-05T12:25:28.066Z,66.89
2022-10-05T12:27:37.137Z,64.17
2022-10-05T12:29:45.434Z,62.38
2022-10-05T12:31:57.745Z,62.91
2022-10-05T12:34:09.447Z,63.31
2022-10-05T12:36:16.505Z,61.82
2022-10-05T12:38:28.584Z,60.61
2022-10-05T12:40:41.162Z,59.70
2022-10-05T12:42:51.455Z,61.46
2022-10-05T12:45:10.704Z,61.14
2022-10-05T12:47:23.677Z,60.51
2022-10-05T12:49:51.298Z,59.61
2022-10-05T12:51:58.605Z,59.91
2022-10-05T12:54:10.397Z,58.54
2022-10-05T12:56:17.121Z,56.12
2022-10-05T12:58:30.113Z,56.69
2022-10-05T13:00:38.154Z,55.77
2022-10-05T13:02:46.512Z,56.09
2022-10-05T13:04:56.245Z,56.31
2022-10-05T13:07:18.317Z,56.41
2022-10-05T13:09:30.064Z,55.49
2022-10-05T13:11:35.631Z,54.35
2022-10-05T13:13:48.349Z,51.47
2022-10-05T13:15:56.369Z,46.99
2022-10-05T13:18:14.170Z,46.30
2022-10-05T13:20:28.039Z,47.13
2022-10-05T13:22:37.101Z,45.98
2022-10-05T13:24:49.568Z,44.61
2022-10-05T13:26:56.022Z,43.81
2022-10-05T13:29:04.252Z,44.43
2022-10-05T13:31:12.953Z,45.76
2022-10-05T13:33:20.317Z,44.89
2022-10-05T13:35:40.257Z,45.56
2022-10-05T13:37:54.127Z,44.98
2022-10-05T13:40:07.304Z,45.25
2022-10-05T13:42:14.241Z,44.80
2022-10-05T13:44:26.164Z,45.50
2022-10-05T13:46:37.298Z,45.96
2022-10-05T13:48:52.765Z,45.96
2022-10-05T13:53:14.001Z,45.69
2022-10-05T13:55:30.350Z,45.87
2022-10-05T13:57:46.087Z,42.84
2022-10-05T13:59:54.394Z,43.40
2022-10-05T14:02:00.233Z,43.05
2022-10-05T14:04:11.054Z,43.29
2022-10-05T14:06:27.599Z,41.69
2022-10-05T14:08:33.885Z,42.83
2022-10-05T14:10:40.757Z,42.71
2022-10-05T14:12:45.735Z,41.17
2022-10-05T14:14:50.852Z,41.71
2022-10-05T14:16:55.380Z,41.79
2022-10-05T14:19:10.098Z,41.16
2022-10-05T14:21:22.074Z,41.48
2022-10-05T14:23:26.919Z,41.46
2022-10-05T14:25:31.499Z,41.63
2022-10-05T14:27:37.336Z,42.72
2022-10-05T14:29:40.117Z,41.53
2022-10-05T14:31:50.328Z,41.61
2022-10-05T14:33:53.039Z,41.51
2022-10-05T14:35:58.001Z,41.05
2022-10-05T14:38:02.734Z,41.22
2022-10-05T14:40:24.299Z,41.28
2022-10-05T14:42:29.471Z,41.79
2022-10-05T14:44:34.811Z,40.75
2022-10-05T14:46:38.559Z,40.43
2022-10-05T14:48:43.035Z,40.83
2022-10-05T14:50:57.567Z,40.73
2022-10-05T14:53:17.485Z,41.95
2022-10-05T14:55:33.721Z,41.41
2022-10-05T14:57:45.078Z,42.42
2022-10-05T15:00:01.519Z,42.40
2022-10-05T15:02:24.281Z,42.95
2022-10-05T15:04:43.675Z,42.23
2022-10-05T15:06:57.622Z,42.54
2022-10-05T15:09:31.505Z,42.67
2022-10-05T15:11:38.714Z,42.86
2022-10-05T15:13:44.293Z,43.19
2022-10-05T15:15:54.601Z,42.88
2022-10-05T15:18:02.140Z,42.68
2022-10-05T15:20:19.473Z,43.07
2022-10-05T15:22:31.654Z,42.06
2022-10-05T15:24:44.255Z,40.98
2022-10-05T15:26:52.660Z,41.42
2022-10-05T15:29:01.135Z,41.72
2022-10-05T15:31:11.280Z,41.45
2022-10-05T15:33:21.516Z,41.41
2022-10-05T15:35:49.674Z,41.17
2022-10-05T15:37:57.035Z,41.39
2022-10-05T15:40:02.235Z,41.78
2022-10-05T15:42:10.999Z,42.09
2022-10-05T15:44:26.023Z,42.02
2022-10-05T15:46:36.563Z,42.01
2022-10-05T15:48:49.380Z,42.37
2022-10-05T15:50:56.819Z,42.10
2022-10-05T15:53:11.931Z,40.73
2022-10-05T15:55:35.322Z,40.31
2022-10-05T15:57:46.441Z,41.13
2022-10-05T16:00:01.898Z,42.02
2022-10-05T16:02:17.186Z,42.09
2022-10-05T16:04:26.757Z,42.40
2022-10-05T16:06:56.125Z,42.63
2022-10-05T16:09:09.207Z,42.79
2022-10-05T16:11:20.630Z,43.57
2022-10-05T16:13:34.043Z,45.45
2022-10-05T16:15:43.621Z,46.65
2022-10-05T16:18:02.428Z,46.76
2022-10-05T16:20:18.610Z,46.46
2022-10-05T16:22:29.138Z,46.92
2022-10-05T16:24:51.635Z,48.12
2022-10-05T16:26:59.495Z,49.45
2022-10-05T16:29:10.376Z,50.56
2022-10-05T16:31:19.909Z,51.81
2022-10-05T16:33:33.212Z,51.38
2022-10-05T16:35:46.721Z,52.62
2022-10-05T16:38:00.642Z,52.61
2022-10-05T16:40:08.508Z,52.72
2022-10-05T16:42:19.470Z,52.87
2022-10-05T16:44:34.258Z,52.98
2022-10-05T16:46:42.546Z,53.29
2022-10-05T16:48:56.274Z,53.96
2022-10-05T16:51:24.074Z,54.21
2022-10-05T16:53:31.927Z,54.73
2022-10-05T16:55:38.416Z,55.16
2022-10-05T16:57:46.425Z,55.46
2022-10-05T17:00:12.179Z,55.48
2022-10-05T17:02:31.036Z,56.02
2022-10-05T17:04:46.042Z,56.35
2022-10-05T17:07:36.356Z,56.77
2022-10-05T17:09:59.344Z,57.71
2022-10-05T17:12:16.766Z,58.52
2022-10-05T17:14:31.852Z,59.32
2022-10-05T17:16:48.438Z,59.72
2022-10-05T17:19:19.242Z,59.21
2022-10-05T17:21:30.987Z,58.43
2022-10-05T17:23:39.881Z,58.59
2022-10-05T17:25:46.663Z,58.83
2022-10-05T17:27:54.036Z,58.44
2022-10-05T17:30:22.055Z,57.86
2022-10-05T17:32:39.453Z,58.18
2022-10-05T17:35:18.229Z,58.00
2022-10-05T17:37:36.477Z,58.47
2022-10-05T17:39:51.277Z,58.74
2022-10-05T17:41:53.991Z,58.93
2022-10-05T17:44:28.360Z,59.21
2022-10-05T17:46:39.217Z,59.81
2022-10-05T17:49:12.446Z,60.12
2022-10-05T17:51:56.458Z,60.48
2022-10-05T17:54:18.051Z,61.00
2022-10-05T17:56:22.361Z,61.40
2022-10-05T17:59:01.669Z,61.78
2022-10-05T18:01:14.260Z,62.03
2022-10-05T18:03:41.862Z,62.50
2022-10-05T18:05:46.326Z,62.77
2022-10-05T18:08:09.580Z,62.91
2022-10-05T18:10:28.922Z,63.21
2022-10-05T18:12:49.108Z,63.73
2022-10-05T18:14:57.170Z,64.28
2022-10-05T18:17:01.687Z,64.79
2022-10-05T18:19:16.609Z,64.94
2022-10-05T18:21:39.796Z,65.13
2022-10-05T18:23:50.000Z,65.56
2022-10-05T18:26:02.991Z,65.80
2022-10-05T18:28:17.853Z,65.97
2022-10-05T18:30:23.410Z,66.18
2022-10-05T18:32:33.596Z,66.02
2022-10-05T18:34:43.335Z,66.64
2022-10-05T18:37:14.857Z,67.02
2022-10-05T18:39:30.670Z,67.14
2022-10-05T18:41:45.508Z,67.46
2022-10-05T18:43:59.671Z,67.68
2022-10-05T18:46:17.174Z,67.81
2022-10-05T18:48:29.201Z,68.09
2022-10-05T18:50:39.795Z,68.26
2022-10-05T18:52:53.184Z,68.47
2022-10-05T18:55:07.306Z,68.57
2022-10-05T18:57:45.974Z,68.93
2022-10-05T18:59:55.776Z,68.82
2022-10-05T19:02:10.880Z,69.15
2022-10-05T19:04:25.548Z,69.17
2022-10-05T19:06:31.690Z,69.54
2022-10-05T19:08:43.645Z,69.62
2022-10-05T19:10:52.624Z,69.54
2022-10-05T19:13:07.444Z,69.59
2022-10-05T19:15:18.094Z,69.54
2022-10-05T19:17:26.209Z,69.70
2022-10-05T19:19:43.916Z,69.58
2022-10-05T19:21:56.860Z,69.84
2022-10-05T19:24:18.526Z,69.80
2022-10-05T19:26:36.749Z,69.75
2022-10-05T19:28:50.273Z,69.79
2022-10-05T19:31:05.169Z,69.94
2022-10-05T19:33:27.248Z,70.01
2022-10-05T19:35:39.201Z,70.21
2022-10-05T19:37:54.476Z,70.05
2022-10-05T19:40:08.806Z,70.03
2022-10-05T19:42:26.383Z,68.76
2022-10-05T19:44:47.793Z,69.09
2022-10-05T19:46:59.536Z,69.17
2022-10-05T19:51:27.276Z,69.25
2022-10-05T19:53:33.221Z,69.65
2022-10-05T19:55:37.810Z,69.38
2022-10-05T19:57:48.256Z,69.35
2022-10-05T19:59:50.822Z,69.44
2022-10-05T20:01:55.877Z,69.58
2022-10-05T20:03:59.264Z,69.46
2022-10-05T20:06:03.335Z,69.46
2022-10-05T20:08:08.410Z,69.56
2022-10-05T20:10:29.043Z,69.50
2022-10-05T20:12:54.445Z,69.38
2022-10-05T20:15:26.065Z,69.29
2022-10-05T20:17:46.893Z,69.17
2022-10-05T20:20:18.765Z,69.40
2022-10-05T20:22:34.236Z,69.28
2022-10-05T20:24:50.700Z,69.21
2022-10-05T20:27:05.177Z,69.13
2022-10-05T20:29:09.703Z,69.38
2022-10-05T20:31:14.402Z,69.43
2022-10-05T20:34:56.541Z,69.69
2022-10-05T20:37:42.117Z,69.58
2022-10-05T20:46:42.055Z,69.72
2022-10-05T20:48:45.753Z,69.98
2022-10-05T20:50:48.513Z,69.76
2022-10-05T20:52:51.195Z,69.77
2022-10-05T20:57:00.972Z,69.82
2022-10-05T20:59:03.627Z,69.56
2022-10-05T21:01:19.885Z,69.83
2022-10-05T21:03:22.813Z,70.47
2022-10-05T21:05:25.556Z,70.66
2022-10-05T21:09:04.146Z,70.48
2022-10-05T21:11:09.104Z,70.69
2022-10-05T21:13:11.829Z,70.29
2022-10-05T21:15:14.441Z,69.76
2022-10-05T21:17:17.023Z,70.25
2022-10-05T21:19:19.795Z,70.19
2022-10-05T21:21:22.715Z,70.96
2022-10-05T21:23:25.274Z,71.08
2022-10-05T21:25:29.314Z,70.94
2022-10-05T21:27:32.251Z,70.94
2022-10-05T21:29:36.500Z,71.16
2022-10-05T21:31:39.375Z,71.30
2022-10-05T21:33:42.045Z,69.79
2022-10-05T21:35:44.765Z,69.90
2022-10-05T21:37:47.420Z,69.72
2022-10-05T21:39:50.040Z,70.11
2022-10-05T21:41:53.978Z,70.16
2022-10-05T21:43:56.661Z,70.62
2022-10-05T21:45:59.454Z,70.70
2022-10-05T21:48:02.266Z,71.11
2022-10-05T21:50:06.131Z,71.06
2022-10-05T21:52:11.420Z,70.81
2022-10-05T21:54:16.546Z,70.74
2022-10-05T21:56:21.873Z,70.42
2022-10-05T21:58:28.840Z,70.76
2022-10-05T22:00:32.158Z,70.70
2022-10-05T22:02:34.954Z,70.73
2022-10-05T22:04:37.532Z,70.84
2022-10-05T22:06:40.286Z,70.60
2022-10-05T22:08:42.907Z,70.74
2022-10-05T22:10:45.492Z,70.89
2022-10-05T22:12:48.105Z,70.99
2022-10-05T22:14:52.028Z,70.81
2022-10-05T22:16:55.241Z,70.81
2022-10-05T22:18:58.423Z,70.63
2022-10-05T22:21:00.964Z,70.85
2022-10-05T22:23:03.681Z,71.00
2022-10-05T22:25:07.027Z,70.92
2022-10-05T22:27:09.721Z,71.00
2022-10-05T22:29:12.755Z,71.10
2022-10-05T22:31:16.961Z,70.75
2022-10-05T22:33:19.581Z,70.31
2022-10-05T22:35:22.272Z,70.37
2022-10-05T22:37:24.936Z,70.82
2022-10-05T22:39:27.694Z,70.85
2022-10-05T22:41:30.443Z,70.83
2022-10-05T22:43:32.980Z,70.58
2022-10-05T22:45:35.655Z,70.95
2022-10-05T22:47:39.569Z,70.75
2022-10-05T22:49:42.127Z,70.79
2022-10-05T22:51:44.677Z,70.91
2022-10-05T22:53:47.339Z,71.02
2022-10-05T22:55:49.951Z,71.16
2022-10-05T22:57:52.572Z,70.80
2022-10-05T22:59:55.152Z,70.61
2022-10-05T23:01:58.106Z,70.70
2022-10-05T23:04:02.197Z,70.65
2022-10-05T23:06:07.175Z,70.56
2022-10-05T23:08:09.839Z,70.35
2022-10-05T23:10:15.145Z,70.56
2022-10-05T23:12:17.743Z,70.34
2022-10-05T23:14:20.339Z,70.31
2022-10-05T23:16:24.294Z,69.80
2022-10-05T23:18:27.521Z,69.66
2022-10-05T23:20:31.706Z,70.15
2022-10-05T23:22:36.877Z,70.26
2022-10-05T23:24:39.427Z,70.01
2022-10-05T23:26:42.008Z,69.96
2022-10-05T23:28:47.126Z,70.07
2022-10-05T23:30:49.847Z,70.17
2022-10-05T23:32:52.453Z,70.33
2022-10-05T23:34:55.041Z,70.33
2022-10-05T23:36:58.968Z,70.57
2022-10-05T23:39:01.663Z,70.66
2022-10-05T23:41:05.498Z,70.68
2022-10-05T23:43:08.091Z,70.77
2022-10-05T23:45:12.249Z,70.72
2022-10-05T23:47:14.870Z,71.04
2022-10-05T23:49:17.469Z,71.03
2022-10-05T23:51:20.070Z,70.96
2022-10-05T23:53:24.787Z,71.18
2022-10-05T23:55:27.363Z,71.13
2022-10-05T23:57:29.965Z,70.55
2022-10-05T23:59:32.529Z,70.69
